createdAt,value
2016-06-12T00:00:36.311Z,0
2016-06-12T00:01:36.298Z,0
2016-06-12T00:02:36.285Z,0
2016-06-12T00:03:36.257Z,0
2016-06-12T00:04:37.479Z,0
2016-06-12T00:05:36.232Z,0
2016-06-12T00:06:36.205Z,0
2016-06-12T00:07:36.176Z,0
2016-06-12T00:08:36.033Z,0
2016-06-12T00:09:36.215Z,0
2016-06-12T00:10:36.225Z,0
2016-06-12T00:11:36.094Z,0
2016-06-12T00:12:36.276Z,0
2016-06-12T00:13:36.269Z,0
2016-06-12T00:14:36.145Z,0
2016-06-12T00:15:36.272Z,0
2016-06-12T00:16:36.116Z,0
2016-06-12T00:17:36.243Z,0
2016-06-12T00:18:36.238Z,0
2016-06-12T00:19:37.230Z,0
2016-06-12T00:20:36.832Z,0
2016-06-12T00:21:36.215Z,0
2016-06-12T00:22:36.176Z,0
2016-06-12T00:23:36.167Z,0
2016-06-12T00:24:36.156Z,0
2016-06-12T00:25:36.145Z,0
2016-06-12T00:26:36.119Z,0
2016-06-12T00:27:35.952Z,0
2016-06-12T00:28:36.081Z,0
2016-06-12T00:29:36.085Z,0
2016-06-12T00:30:36.041Z,0
2016-06-12T00:31:41.827Z,0
2016-06-12T00:32:36.017Z,0
2016-06-12T00:33:36.006Z,0
2016-06-12T00:34:35.884Z,0
2016-06-12T00:35:36.340Z,0
2016-06-12T00:36:37.422Z,0
2016-06-12T00:37:35.925Z,0
2016-06-12T00:38:35.897Z,0
2016-06-12T00:39:35.885Z,0
2016-06-12T00:40:35.871Z,0
2016-06-12T00:41:35.860Z,0
2016-06-12T00:42:35.846Z,0
2016-06-12T00:43:35.819Z,0
2016-06-12T00:44:35.791Z,0
2016-06-12T00:45:35.778Z,0
2016-06-12T00:46:35.781Z,0
2016-06-12T00:47:35.737Z,0
2016-06-12T00:48:35.724Z,0
2016-06-12T00:49:36.588Z,0
2016-06-12T00:50:36.168Z,0
2016-06-12T00:51:35.672Z,0
2016-06-12T00:52:35.658Z,0
2016-06-12T00:53:35.631Z,0
2016-06-12T00:54:35.618Z,0
2016-06-12T00:55:35.589Z,0
2016-06-12T00:56:35.562Z,0
2016-06-12T00:57:35.393Z,0
2016-06-12T00:58:35.537Z,0
2016-06-12T00:59:35.024Z,0
2016-06-12T01:00:35.496Z,0
2016-06-12T01:01:35.468Z,0
2016-06-12T01:02:35.486Z,0
2016-06-12T01:03:35.428Z,0
2016-06-12T01:04:35.445Z,0
2016-06-12T01:05:35.417Z,0
2016-06-12T01:06:35.373Z,0
2016-06-12T01:07:35.362Z,0
2016-06-12T01:08:35.364Z,0
2016-06-12T01:09:35.321Z,0
2016-06-12T01:10:35.136Z,0
2016-06-12T01:11:35.279Z,0
2016-06-12T01:12:35.283Z,0
2016-06-12T01:13:35.239Z,0
2016-06-12T01:14:35.226Z,0
2016-06-12T01:15:35.215Z,0
2016-06-12T01:16:35.185Z,0
2016-06-12T01:17:35.174Z,0
2016-06-12T01:18:35.145Z,0
2016-06-12T01:19:34.976Z,0
2016-06-12T01:20:35.338Z,0
2016-06-12T01:21:35.091Z,0
2016-06-12T01:22:35.079Z,0
2016-06-12T01:23:35.048Z,0
2016-06-12T01:24:35.036Z,0
2016-06-12T01:25:35.007Z,0
2016-06-12T01:26:34.995Z,0
2016-06-12T01:27:34.966Z,0
2016-06-12T01:28:34.954Z,0
2016-06-12T01:29:34.785Z,0
2016-06-12T01:30:34.913Z,0
2016-06-12T01:31:34.917Z,0
2016-06-12T01:32:34.888Z,0
2016-06-12T01:33:34.859Z,0
2016-06-12T01:34:34.692Z,0
2016-06-12T01:35:35.179Z,0
2016-06-12T01:36:34.807Z,0
2016-06-12T01:37:34.779Z,0
2016-06-12T01:38:34.766Z,0
2016-06-12T01:39:34.738Z,0
2016-06-12T01:40:34.569Z,0
2016-06-12T01:41:34.557Z,0
2016-06-12T01:42:34.684Z,0
2016-06-12T01:43:34.672Z,0
2016-06-12T01:44:34.643Z,0
2016-06-12T01:45:34.632Z,0
2016-06-12T01:46:34.604Z,0
2016-06-12T01:47:34.590Z,0
2016-06-12T01:48:34.578Z,0
2016-06-12T01:49:34.550Z,0
2016-06-12T01:50:34.647Z,0
2016-06-12T01:51:34.525Z,0
2016-06-12T01:52:34.497Z,0
2016-06-12T01:53:34.484Z,0
2016-06-12T01:54:34.456Z,0
2016-06-12T01:55:34.460Z,0
2016-06-12T01:56:34.415Z,0
2016-06-12T01:57:34.402Z,0
2016-06-12T01:58:34.391Z,0
2016-06-12T01:59:34.361Z,0
2016-06-12T02:00:34.350Z,0
2016-06-12T02:01:34.337Z,0
2016-06-12T02:02:34.309Z,0
2016-06-12T02:03:34.281Z,0
2016-06-12T02:04:34.268Z,0
2016-06-12T02:05:35.083Z,0
2016-06-12T02:06:34.227Z,0
2016-06-12T02:07:34.214Z,0
2016-06-12T02:08:34.202Z,0
2016-06-12T02:09:34.175Z,0
2016-06-12T02:10:34.162Z,0
2016-06-12T02:11:34.134Z,0
2016-06-12T02:12:34.121Z,0
2016-06-12T02:13:34.093Z,0
2016-06-12T02:14:34.080Z,0
2016-06-12T02:15:34.052Z,0
2016-06-12T02:16:34.039Z,0
2016-06-12T02:17:34.042Z,0
2016-06-12T02:18:33.998Z,0
2016-06-12T02:19:33.986Z,0
2016-06-12T02:20:34.614Z,0
2016-06-12T02:21:33.882Z,0
2016-06-12T02:22:33.949Z,0
2016-06-12T02:23:33.920Z,0
2016-06-12T02:24:33.970Z,0
2016-06-12T02:25:33.879Z,0
2016-06-12T02:26:33.852Z,0
2016-06-12T02:27:33.839Z,0
2016-06-12T02:28:33.825Z,0
2016-06-12T02:29:33.798Z,0
2016-06-12T02:30:33.629Z,0
2016-06-12T02:31:33.757Z,0
2016-06-12T02:32:33.745Z,0
2016-06-12T02:33:33.733Z,0
2016-06-12T02:34:33.688Z,0
2016-06-12T02:35:34.332Z,0
2016-06-12T02:36:33.663Z,0
2016-06-12T02:37:33.635Z,0
2016-06-12T02:38:33.639Z,0
2016-06-12T02:39:33.595Z,0
2016-06-12T02:40:33.582Z,0
2016-06-12T02:41:33.568Z,0
2016-06-12T02:42:33.541Z,0
2016-06-12T02:43:33.529Z,0
2016-06-12T02:44:33.516Z,0
2016-06-12T02:45:33.503Z,0
2016-06-12T02:46:33.491Z,0
2016-06-12T02:47:33.447Z,0
2016-06-12T02:48:33.434Z,0
2016-06-12T02:49:33.406Z,0
2016-06-12T02:50:34.393Z,0
2016-06-12T02:51:33.381Z,0
2016-06-12T02:52:33.353Z,0
2016-06-12T02:53:33.184Z,0
2016-06-12T02:54:33.312Z,0
2016-06-12T02:55:33.300Z,0
2016-06-12T02:56:33.287Z,0
2016-06-12T02:57:33.258Z,0
2016-06-12T02:58:33.246Z,0
2016-06-12T02:59:33.218Z,0
2016-06-12T03:00:33.206Z,0
2016-06-12T03:01:33.037Z,5
2016-06-12T03:02:33.165Z,5
2016-06-12T03:03:33.152Z,5
2016-06-12T03:04:33.124Z,5
2016-06-12T03:05:34.034Z,5
2016-06-12T03:06:33.099Z,5
2016-06-12T03:07:33.086Z,5
2016-06-12T03:08:33.074Z,5
2016-06-12T03:09:33.062Z,5
2016-06-12T03:10:33.048Z,5
2016-06-12T03:11:33.021Z,5
2016-06-12T03:12:33.008Z,5
2016-06-12T03:13:32.808Z,10
2016-06-12T03:14:32.983Z,10
2016-06-12T03:15:32.923Z,10
2016-06-12T03:16:32.912Z,10
2016-06-12T03:17:32.898Z,10
2016-06-12T03:18:32.886Z,10
2016-06-12T03:19:32.873Z,10
2016-06-12T03:20:32.845Z,10
2016-06-12T03:21:32.833Z,10
2016-06-12T03:22:32.788Z,10
2016-06-12T03:23:32.791Z,10
2016-06-12T03:24:32.764Z,10
2016-06-12T03:25:32.767Z,10
2016-06-12T03:26:32.723Z,10
2016-06-12T03:27:32.710Z,10
2016-06-12T03:28:32.682Z,10
2016-06-12T03:29:32.670Z,15
2016-06-12T03:30:32.642Z,15
2016-06-12T03:31:32.629Z,15
2016-06-12T03:32:32.616Z,15
2016-06-12T03:33:32.589Z,15
2016-06-12T03:34:32.576Z,15
2016-06-12T03:35:32.564Z,15
2016-06-12T03:36:33.019Z,15
2016-06-12T03:37:32.382Z,20
2016-06-12T03:38:32.354Z,20
2016-06-12T03:39:32.482Z,20
2016-06-12T03:40:32.313Z,20
2016-06-12T03:41:32.441Z,25
2016-06-12T03:42:32.429Z,25
2016-06-12T03:43:32.400Z,25
2016-06-12T03:44:32.387Z,30
2016-06-12T03:45:32.359Z,30
2016-06-12T03:46:32.331Z,30
2016-06-12T03:47:32.319Z,35
2016-06-12T03:48:32.307Z,35
2016-06-12T03:49:32.121Z,40
2016-06-12T03:50:33.016Z,40
2016-06-12T03:51:32.331Z,45
2016-06-12T03:52:32.225Z,45
2016-06-12T03:53:32.212Z,50
2016-06-12T03:54:32.200Z,50
2016-06-12T03:55:32.172Z,55
2016-06-12T03:56:32.159Z,55
2016-06-12T03:57:32.131Z,60
2016-06-12T03:58:32.118Z,55
2016-06-12T03:59:32.105Z,55
2016-06-12T04:00:32.078Z,60
2016-06-12T04:01:32.065Z,60
2016-06-12T04:02:32.052Z,60
2016-06-12T04:03:32.024Z,60
2016-06-12T04:04:32.012Z,65
2016-06-12T04:05:31.999Z,65
2016-06-12T04:06:32.205Z,65
2016-06-12T04:07:31.958Z,65
2016-06-12T04:08:31.930Z,70
2016-06-12T04:09:31.761Z,70
2016-06-12T04:10:31.921Z,70
2016-06-12T04:11:31.892Z,75
2016-06-12T04:12:31.864Z,75
2016-06-12T04:13:31.851Z,75
2016-06-12T04:14:31.824Z,80
2016-06-12T04:15:31.811Z,80
2016-06-12T04:16:31.799Z,80
2016-06-12T04:17:31.771Z,80
2016-06-12T04:18:31.742Z,80
2016-06-12T04:19:31.729Z,80
2016-06-12T04:20:31.827Z,80
2016-06-12T04:21:31.892Z,80
2016-06-12T04:22:31.536Z,80
2016-06-12T04:23:31.664Z,80
2016-06-12T04:24:31.635Z,80
2016-06-12T04:25:31.639Z,80
2016-06-12T04:26:31.610Z,80
2016-06-12T04:27:31.582Z,80
2016-06-12T04:28:31.569Z,85
2016-06-12T04:29:31.558Z,85
2016-06-12T04:30:31.529Z,90
2016-06-12T04:31:31.517Z,90
2016-06-12T04:32:31.488Z,95
2016-06-12T04:33:31.476Z,100
2016-06-12T04:34:31.463Z,105
2016-06-12T04:35:31.451Z,110
2016-06-12T04:36:31.860Z,115
2016-06-12T04:37:31.410Z,120
2016-06-12T04:38:31.398Z,130
2016-06-12T04:39:31.369Z,135
2016-06-12T04:40:31.341Z,140
2016-06-12T04:41:31.329Z,145
2016-06-12T04:42:31.316Z,150
2016-06-12T04:43:31.288Z,160
2016-06-12T04:44:31.291Z,160
2016-06-12T04:45:31.247Z,165
2016-06-12T04:46:31.235Z,165
2016-06-12T04:47:31.222Z,170
2016-06-12T04:48:31.225Z,170
2016-06-12T04:49:31.181Z,175
2016-06-12T04:50:31.169Z,175
2016-06-12T04:51:31.781Z,180
2016-06-12T04:52:31.144Z,180
2016-06-12T04:53:31.115Z,185
2016-06-12T04:54:31.102Z,185
2016-06-12T04:55:31.075Z,190
2016-06-12T04:56:31.063Z,195
2016-06-12T04:57:30.893Z,200
2016-06-12T04:58:31.022Z,205
2016-06-12T04:59:31.009Z,205
2016-06-12T05:00:30.840Z,210
2016-06-12T05:01:30.984Z,210
2016-06-12T05:02:30.956Z,210
2016-06-12T05:03:30.787Z,215
2016-06-12T05:04:30.915Z,215
2016-06-12T05:05:30.902Z,215
2016-06-12T05:06:30.890Z,220
2016-06-12T05:07:30.862Z,225
2016-06-12T05:08:30.708Z,225
2016-06-12T05:09:30.836Z,225
2016-06-12T05:10:30.824Z,220
2016-06-12T05:11:30.640Z,220
2016-06-12T05:12:30.782Z,215
2016-06-12T05:13:30.755Z,215
2016-06-12T05:14:30.758Z,215
2016-06-12T05:15:30.730Z,215
2016-06-12T05:16:30.733Z,220
2016-06-12T05:17:30.720Z,220
2016-06-12T05:18:30.676Z,225
2016-06-12T05:19:30.680Z,225
2016-06-12T05:20:30.651Z,225
2016-06-12T05:21:30.732Z,230
2016-06-12T05:22:30.611Z,230
2016-06-12T05:23:30.599Z,230
2016-06-12T05:24:30.569Z,230
2016-06-12T05:25:30.558Z,235
2016-06-12T05:26:30.544Z,235
2016-06-12T05:27:30.533Z,240
2016-06-12T05:28:30.504Z,240
2016-06-12T05:29:30.492Z,240
2016-06-12T05:30:30.479Z,245
2016-06-12T05:31:30.452Z,250
2016-06-12T05:32:30.438Z,255
2016-06-12T05:33:30.427Z,260
2016-06-12T05:34:30.413Z,265
2016-06-12T05:35:30.386Z,270
2016-06-12T05:36:30.747Z,280
2016-06-12T05:37:30.376Z,285
2016-06-12T05:38:30.332Z,295
2016-06-12T05:39:30.335Z,300
2016-06-12T05:40:30.323Z,305
2016-06-12T05:41:30.294Z,310
2016-06-12T05:42:30.266Z,315
2016-06-12T05:43:30.253Z,320
2016-06-12T05:44:30.241Z,320
2016-06-12T05:45:30.213Z,325
2016-06-12T05:46:30.216Z,330
2016-06-12T05:47:30.187Z,335
2016-06-12T05:48:30.175Z,345
2016-06-12T05:49:30.146Z,350
2016-06-12T05:50:30.134Z,365
2016-06-12T05:51:30.435Z,375
2016-06-12T05:52:30.110Z,390
2016-06-12T05:53:30.081Z,400
2016-06-12T05:54:30.084Z,410
2016-06-12T05:55:29.900Z,420
2016-06-12T05:56:30.043Z,430
2016-06-12T05:57:30.031Z,435
2016-06-12T05:58:30.004Z,440
2016-06-12T05:59:29.990Z,445
2016-06-12T06:00:29.993Z,450
2016-06-12T06:01:29.966Z,460
2016-06-12T06:02:29.936Z,465
2016-06-12T06:03:29.925Z,475
2016-06-12T06:04:29.896Z,480
2016-06-12T06:05:29.884Z,490
2016-06-12T06:06:30.542Z,495
2016-06-12T06:07:29.859Z,500
2016-06-12T06:08:29.846Z,510
2016-06-12T06:09:29.818Z,515
2016-06-12T06:10:29.821Z,525
2016-06-12T06:11:29.793Z,535
2016-06-12T06:12:29.780Z,540
2016-06-12T06:13:29.752Z,545
2016-06-12T06:14:29.739Z,555
2016-06-12T06:15:29.727Z,560
2016-06-12T06:16:29.714Z,570
2016-06-12T06:17:29.701Z,570
2016-06-12T06:18:29.674Z,575
2016-06-12T06:19:29.661Z,580
2016-06-12T06:20:29.649Z,585
2016-06-12T06:21:29.901Z,595
2016-06-12T06:22:29.623Z,600
2016-06-12T06:23:29.611Z,615
2016-06-12T06:24:29.583Z,625
2016-06-12T06:25:29.570Z,645
2016-06-12T06:26:29.558Z,670
2016-06-12T06:27:29.545Z,685
2016-06-12T06:28:29.532Z,705
2016-06-12T06:29:29.505Z,725
2016-06-12T06:30:29.492Z,745
2016-06-12T06:31:29.480Z,760
2016-06-12T06:32:29.466Z,775
2016-06-12T06:33:29.454Z,785
2016-06-12T06:34:29.442Z,795
2016-06-12T06:35:29.412Z,810
2016-06-12T06:36:31.026Z,825
2016-06-12T06:37:29.716Z,835
2016-06-12T06:38:29.376Z,855
2016-06-12T06:39:29.363Z,870
2016-06-12T06:40:29.351Z,885
2016-06-12T06:41:29.339Z,900
2016-06-12T06:42:29.309Z,915
2016-06-12T06:43:29.313Z,935
2016-06-12T06:44:29.300Z,950
2016-06-12T06:45:29.273Z,965
2016-06-12T06:46:29.260Z,985
2016-06-12T06:47:29.247Z,1020
2016-06-12T06:48:29.235Z,1030
2016-06-12T06:49:29.221Z,1045
2016-06-12T06:50:29.209Z,1045
2016-06-12T06:51:29.822Z,1045
2016-06-12T06:52:29.184Z,1060
2016-06-12T06:53:29.172Z,1050
2016-06-12T06:54:29.159Z,1015
2016-06-12T06:55:29.146Z,1015
2016-06-12T06:56:29.134Z,1000
2016-06-12T06:57:29.122Z,980
2016-06-12T06:58:29.109Z,960
2016-06-12T06:59:29.111Z,950
2016-06-12T07:00:29.084Z,935
2016-06-12T07:01:28.915Z,930
2016-06-12T07:02:29.059Z,910
2016-06-12T07:03:29.046Z,885
2016-06-12T07:04:29.034Z,865
2016-06-12T07:05:29.021Z,850
2016-06-12T07:06:30.258Z,850
2016-06-12T07:07:29.778Z,840
2016-06-12T07:08:28.984Z,840
2016-06-12T07:09:28.972Z,845
2016-06-12T07:10:28.958Z,850
2016-06-12T07:11:28.946Z,860
2016-06-12T07:12:28.934Z,875
2016-06-12T07:13:28.921Z,890
2016-06-12T07:14:28.907Z,910
2016-06-12T07:15:28.896Z,925
2016-06-12T07:16:28.883Z,945
2016-06-12T07:17:28.886Z,960
2016-06-12T07:18:28.858Z,985
2016-06-12T07:19:28.877Z,1005
2016-06-12T07:20:28.833Z,1025
2016-06-12T07:21:29.070Z,1040
2016-06-12T07:22:28.979Z,1055
2016-06-12T07:23:28.811Z,1070
2016-06-12T07:24:28.799Z,1090
2016-06-12T07:25:28.785Z,1105
2016-06-12T07:26:28.758Z,1125
2016-06-12T07:27:28.588Z,1135
2016-06-12T07:28:28.732Z,1150
2016-06-12T07:29:28.564Z,1160
2016-06-12T07:30:28.707Z,1165
2016-06-12T07:31:28.695Z,1165
2016-06-12T07:32:28.698Z,1165
2016-06-12T07:33:28.670Z,1160
2016-06-12T07:34:28.657Z,1155
2016-06-12T07:35:28.644Z,1140
2016-06-12T07:36:28.491Z,1125
2016-06-12T07:37:28.478Z,1110
2016-06-12T07:38:28.623Z,1090
2016-06-12T07:39:28.610Z,1075
2016-06-12T07:40:28.442Z,1060
2016-06-12T07:41:28.585Z,1045
2016-06-12T07:42:28.573Z,1030
2016-06-12T07:43:28.560Z,1020
2016-06-12T07:44:28.547Z,1010
2016-06-12T07:45:28.535Z,1000
2016-06-12T07:46:28.381Z,985
2016-06-12T07:47:28.525Z,975
2016-06-12T07:48:28.512Z,975
2016-06-12T07:49:28.484Z,965
2016-06-12T07:50:28.487Z,960
2016-06-12T07:51:28.928Z,960
2016-06-12T07:52:28.790Z,960
2016-06-12T07:53:28.450Z,965
2016-06-12T07:54:28.438Z,965
2016-06-12T07:55:28.425Z,965
2016-06-12T07:56:28.412Z,965
2016-06-12T07:57:28.400Z,970
2016-06-12T07:58:28.387Z,965
2016-06-12T07:59:28.375Z,965
2016-06-12T08:00:28.378Z,975
2016-06-12T08:01:28.365Z,970
2016-06-12T08:02:28.353Z,970
2016-06-12T08:03:28.324Z,975
2016-06-12T08:04:28.328Z,975
2016-06-12T08:05:28.299Z,985
2016-06-12T08:06:28.146Z,980
2016-06-12T08:07:28.462Z,995
2016-06-12T08:08:28.261Z,990
2016-06-12T08:09:28.249Z,990
2016-06-12T08:10:28.252Z,995
2016-06-12T08:11:28.255Z,995
2016-06-12T08:12:28.227Z,1000
2016-06-12T08:13:28.199Z,1010
2016-06-12T08:14:28.046Z,1015
2016-06-12T08:15:28.189Z,1025
2016-06-12T08:16:28.177Z,1045
2016-06-12T08:17:28.164Z,1045
2016-06-12T08:18:27.995Z,1065
2016-06-12T08:19:28.140Z,1085
2016-06-12T08:20:28.126Z,1115
2016-06-12T08:21:28.177Z,1150
2016-06-12T08:22:27.961Z,1190
2016-06-12T08:23:28.089Z,1235
2016-06-12T08:24:28.077Z,1300
2016-06-12T08:25:28.064Z,1385
2016-06-12T08:26:28.052Z,1460
2016-06-12T08:27:28.039Z,1535
2016-06-12T08:28:28.042Z,1600
2016-06-12T08:29:28.030Z,1645
2016-06-12T08:30:28.016Z,1680
2016-06-12T08:31:28.005Z,1690
2016-06-12T08:32:27.991Z,1725
2016-06-12T08:33:27.979Z,1795
2016-06-12T08:34:27.967Z,1775
2016-06-12T08:35:27.953Z,1820
2016-06-12T08:36:27.942Z,1840
2016-06-12T08:37:28.554Z,1745
2016-06-12T08:38:27.932Z,1665
2016-06-12T08:39:27.919Z,1615
2016-06-12T08:40:27.907Z,1600
2016-06-12T08:41:27.894Z,1580
2016-06-12T08:42:27.883Z,1600
2016-06-12T08:43:27.886Z,1605
2016-06-12T08:44:27.872Z,1580
2016-06-12T08:45:27.876Z,1525
2016-06-12T08:46:27.862Z,1460
2016-06-12T08:47:27.834Z,1335
2016-06-12T08:48:27.838Z,1260
2016-06-12T08:49:27.825Z,1200
2016-06-12T08:50:27.813Z,1155
2016-06-12T08:51:27.816Z,1125
2016-06-12T08:52:27.959Z,1115
2016-06-12T08:53:27.806Z,1110
2016-06-12T08:54:27.779Z,1110
2016-06-12T08:55:27.782Z,1120
2016-06-12T08:56:27.612Z,1125
2016-06-12T08:57:27.741Z,1125
2016-06-12T08:58:27.728Z,1130
2016-06-12T08:59:27.731Z,1140
2016-06-12T09:00:27.718Z,1145
2016-06-12T09:01:27.550Z,1150
2016-06-12T09:02:27.584Z,1160
2016-06-12T09:03:27.681Z,1165
2016-06-12T09:04:27.684Z,1170
2016-06-12T09:05:27.671Z,1180
2016-06-12T09:06:27.659Z,1190
2016-06-12T09:07:27.740Z,1200
2016-06-12T09:08:27.634Z,1220
2016-06-12T09:09:27.636Z,1230
2016-06-12T09:10:27.625Z,1245
2016-06-12T09:11:27.612Z,1260
2016-06-12T09:12:27.599Z,1275
2016-06-12T09:13:27.586Z,1280
2016-06-12T09:14:27.575Z,1290
2016-06-12T09:15:27.446Z,1300
2016-06-12T09:16:27.647Z,1310
2016-06-12T09:17:27.659Z,1325
2016-06-12T09:18:27.547Z,1335
2016-06-12T09:19:27.731Z,1335
2016-06-12T09:20:27.749Z,1340
2016-06-12T09:21:27.578Z,1350
2016-06-12T09:22:27.659Z,1360
2016-06-12T09:23:27.739Z,1385
2016-06-12T09:24:27.741Z,1410
2016-06-12T09:25:27.749Z,1430
2016-06-12T09:26:27.741Z,1450
2016-06-12T09:27:27.733Z,1470
2016-06-12T09:28:27.571Z,1590
2016-06-12T09:29:27.719Z,1565
2016-06-12T09:30:27.724Z,1520
2016-06-12T09:31:27.713Z,1500
2016-06-12T09:32:27.703Z,1465
2016-06-12T09:33:27.691Z,1450
2016-06-12T09:34:27.681Z,1445
2016-06-12T09:35:27.669Z,1410
2016-06-12T09:36:27.657Z,1385
2016-06-12T09:37:27.661Z,1350
2016-06-12T09:38:27.649Z,1315
2016-06-12T09:39:27.638Z,1285
2016-06-12T09:40:27.626Z,1285
2016-06-12T09:41:27.613Z,1305
2016-06-12T09:42:27.617Z,1360
2016-06-12T09:43:27.589Z,1415
2016-06-12T09:44:27.593Z,1485
2016-06-12T09:45:27.580Z,1570
2016-06-12T09:46:27.567Z,1655
2016-06-12T09:47:27.555Z,1800
2016-06-12T09:48:27.558Z,1895
2016-06-12T09:49:27.545Z,1910
2016-06-12T09:50:27.533Z,1925
2016-06-12T09:51:27.630Z,1935
2016-06-12T09:52:27.570Z,2065
2016-06-12T09:53:27.510Z,2080
2016-06-12T09:54:27.499Z,2075
2016-06-12T09:55:27.486Z,1990
2016-06-12T09:56:27.472Z,1950
2016-06-12T09:57:27.475Z,1915
2016-06-12T09:58:27.464Z,1935
2016-06-12T09:59:27.451Z,1885
2016-06-12T10:00:27.454Z,1900
2016-06-12T10:01:27.442Z,1820
2016-06-12T10:02:27.429Z,1730
2016-06-12T10:03:27.416Z,1690
2016-06-12T10:04:27.419Z,1640
2016-06-12T10:05:27.532Z,1615
2016-06-12T10:06:27.395Z,1560
2016-06-12T10:07:27.303Z,1535
2016-06-12T10:08:27.384Z,1560
2016-06-12T10:09:27.373Z,1495
2016-06-12T10:10:27.376Z,1425
2016-06-12T10:11:27.378Z,1355
2016-06-12T10:12:27.351Z,1280
2016-06-12T10:13:27.354Z,1200
2016-06-12T10:14:27.341Z,1115
2016-06-12T10:15:27.328Z,1025
2016-06-12T10:16:27.331Z,940
2016-06-12T10:17:27.319Z,875
2016-06-12T10:18:27.306Z,820
2016-06-12T10:19:27.138Z,775
2016-06-12T10:20:27.296Z,735
2016-06-12T10:21:27.299Z,705
2016-06-12T10:22:27.507Z,680
2016-06-12T10:23:27.572Z,660
2016-06-12T10:24:27.106Z,625
2016-06-12T10:25:27.250Z,605
2016-06-12T10:26:27.081Z,595
2016-06-12T10:27:27.225Z,610
2016-06-12T10:28:27.212Z,620
2016-06-12T10:29:27.215Z,640
2016-06-12T10:30:28.109Z,655
2016-06-12T10:31:27.175Z,675
2016-06-12T10:32:27.163Z,700
2016-06-12T10:33:27.150Z,735
2016-06-12T10:34:26.996Z,765
2016-06-12T10:35:27.140Z,800
2016-06-12T10:36:27.128Z,835
2016-06-12T10:37:27.224Z,880
2016-06-12T10:38:27.352Z,935
2016-06-12T10:39:27.105Z,980
2016-06-12T10:40:27.077Z,1035
2016-06-12T10:41:27.065Z,1090
2016-06-12T10:42:27.052Z,1140
2016-06-12T10:43:27.039Z,1185
2016-06-12T10:44:27.027Z,1225
2016-06-12T10:45:27.014Z,1265
2016-06-12T10:46:27.001Z,1290
2016-06-12T10:47:26.989Z,1315
2016-06-12T10:48:26.977Z,1340
2016-06-12T10:49:26.965Z,1360
2016-06-12T10:50:26.935Z,1385
2016-06-12T10:51:26.955Z,1415
2016-06-12T10:52:26.849Z,1450
2016-06-12T10:53:27.726Z,1470
2016-06-12T10:54:26.917Z,1500
2016-06-12T10:55:26.889Z,1525
2016-06-12T10:56:26.876Z,1560
2016-06-12T10:57:26.864Z,1600
2016-06-12T10:58:26.852Z,1650
2016-06-12T10:59:26.838Z,1750
2016-06-12T11:00:26.841Z,1730
2016-06-12T11:01:26.829Z,1765
2016-06-12T11:02:26.801Z,1950
2016-06-12T11:03:26.804Z,1810
2016-06-12T11:04:26.775Z,1855
2016-06-12T11:05:26.842Z,1970
2016-06-12T11:06:26.767Z,2060
2016-06-12T11:07:27.300Z,2230
2016-06-12T11:08:26.804Z,2460
2016-06-12T11:09:26.729Z,2380
2016-06-12T11:10:26.716Z,2410
2016-06-12T11:11:26.719Z,2485
2016-06-12T11:12:26.550Z,2205
2016-06-12T11:13:26.709Z,1925
2016-06-12T11:14:26.526Z,1915
2016-06-12T11:15:26.685Z,1930
2016-06-12T11:16:26.673Z,1835
2016-06-12T11:17:26.660Z,1765
2016-06-12T11:18:26.662Z,1765
2016-06-12T11:19:26.650Z,1695
2016-06-12T11:20:26.638Z,1770
2016-06-12T11:21:26.641Z,1925
2016-06-12T11:22:26.487Z,2095
2016-06-12T11:23:26.615Z,2265
2016-06-12T11:24:26.603Z,2110
2016-06-12T11:25:26.606Z,2075
2016-06-12T11:26:26.609Z,2395
2016-06-12T11:27:26.581Z,2205
2016-06-12T11:28:26.584Z,2180
2016-06-12T11:29:26.588Z,1955
2016-06-12T11:30:26.418Z,1820
2016-06-12T11:31:26.561Z,1750
2016-06-12T11:32:26.409Z,1740
2016-06-12T11:33:26.553Z,1780
2016-06-12T11:34:26.540Z,1785
2016-06-12T11:35:26.527Z,1765
2016-06-12T11:36:26.530Z,1755
2016-06-12T11:37:27.456Z,1790
2016-06-12T11:38:26.522Z,1635
2016-06-12T11:39:26.525Z,1490
2016-06-12T11:40:26.512Z,1350
2016-06-12T11:41:26.499Z,1225
2016-06-12T11:42:26.486Z,1095
2016-06-12T11:43:26.473Z,985
2016-06-12T11:44:26.476Z,885
2016-06-12T11:45:26.574Z,805
2016-06-12T11:46:26.311Z,730
2016-06-12T11:47:26.471Z,660
2016-06-12T11:48:26.442Z,605
2016-06-12T11:49:26.461Z,560
2016-06-12T11:50:26.433Z,530
2016-06-12T11:51:26.436Z,500
2016-06-12T11:52:26.423Z,490
2016-06-12T11:53:26.427Z,485
2016-06-12T11:54:26.398Z,480
2016-06-12T11:55:26.386Z,480
2016-06-12T11:56:26.374Z,470
2016-06-12T11:57:26.360Z,450
2016-06-12T11:58:26.207Z,420
2016-06-12T11:59:26.351Z,380
2016-06-12T12:00:26.323Z,345
2016-06-12T12:01:26.326Z,320
2016-06-12T12:02:26.314Z,310
2016-06-12T12:03:26.301Z,310
2016-06-12T12:04:26.288Z,315
2016-06-12T12:05:26.291Z,330
2016-06-12T12:06:26.263Z,345
2016-06-12T12:07:26.532Z,365
2016-06-12T12:08:27.550Z,380
2016-06-12T12:09:26.210Z,390
2016-06-12T12:10:26.229Z,395
2016-06-12T12:11:26.200Z,395
2016-06-12T12:12:26.172Z,380
2016-06-12T12:13:26.160Z,365
2016-06-12T12:14:26.147Z,350
2016-06-12T12:15:26.135Z,340
2016-06-12T12:16:26.123Z,330
2016-06-12T12:17:26.110Z,325
2016-06-12T12:18:26.269Z,325
2016-06-12T12:19:26.070Z,330
2016-06-12T12:20:26.073Z,335
2016-06-12T12:21:26.044Z,335
2016-06-12T12:22:26.032Z,335
2016-06-12T12:23:25.894Z,340
2016-06-12T12:24:26.006Z,345
2016-06-12T12:25:25.853Z,350
2016-06-12T12:26:25.966Z,355
2016-06-12T12:27:25.952Z,355
2016-06-12T12:28:25.940Z,350
2016-06-12T12:29:25.928Z,340
2016-06-12T12:30:25.900Z,335
2016-06-12T12:31:25.904Z,330
2016-06-12T12:32:25.874Z,325
2016-06-12T12:33:25.863Z,325
2016-06-12T12:34:25.850Z,325
2016-06-12T12:35:25.821Z,325
2016-06-12T12:36:25.824Z,330
2016-06-12T12:37:25.796Z,330
2016-06-12T12:38:25.939Z,335
2016-06-12T12:39:25.803Z,340
2016-06-12T12:40:25.759Z,350
2016-06-12T12:41:25.745Z,355
2016-06-12T12:42:25.718Z,365
2016-06-12T12:43:25.705Z,375
2016-06-12T12:44:25.694Z,390
2016-06-12T12:45:25.524Z,390
2016-06-12T12:46:25.652Z,400
2016-06-12T12:47:25.639Z,405
2016-06-12T12:48:25.626Z,415
2016-06-12T12:49:25.615Z,425
2016-06-12T12:50:25.602Z,440
2016-06-12T12:51:25.574Z,455
2016-06-12T12:52:25.561Z,465
2016-06-12T12:53:25.814Z,475
2016-06-12T12:54:25.536Z,480
2016-06-12T12:55:25.523Z,485
2016-06-12T12:56:25.495Z,495
2016-06-12T12:57:25.498Z,510
2016-06-12T12:58:25.470Z,530
2016-06-12T12:59:25.458Z,555
2016-06-12T13:00:25.445Z,575
2016-06-12T13:01:25.417Z,595
2016-06-12T13:02:25.420Z,610
2016-06-12T13:03:25.407Z,615
2016-06-12T13:04:25.379Z,620
2016-06-12T13:05:25.367Z,615
2016-06-12T13:06:25.197Z,610
2016-06-12T13:07:25.185Z,600
2016-06-12T13:08:25.782Z,590
2016-06-12T13:09:25.301Z,565
2016-06-12T13:10:25.132Z,550
2016-06-12T13:11:25.277Z,540
2016-06-12T13:12:25.107Z,530
2016-06-12T13:13:25.250Z,520
2016-06-12T13:14:25.253Z,525
2016-06-12T13:15:25.209Z,530
2016-06-12T13:16:25.212Z,550
2016-06-12T13:17:25.185Z,575
2016-06-12T13:18:25.173Z,610
2016-06-12T13:19:25.144Z,645
2016-06-12T13:20:25.147Z,690
2016-06-12T13:21:25.119Z,740
2016-06-12T13:22:25.106Z,800
2016-06-12T13:23:26.047Z,875
2016-06-12T13:24:25.082Z,955
2016-06-12T13:25:25.069Z,1040
2016-06-12T13:26:25.040Z,1095
2016-06-12T13:27:24.888Z,1115
2016-06-12T13:28:25.015Z,1120
2016-06-12T13:29:25.002Z,1120
2016-06-12T13:30:24.850Z,1140
2016-06-12T13:31:24.993Z,1170
2016-06-12T13:32:24.965Z,1200
2016-06-12T13:33:24.953Z,1245
2016-06-12T13:34:24.940Z,1285
2016-06-12T13:35:24.911Z,1325
2016-06-12T13:36:24.899Z,1350
2016-06-12T13:37:24.887Z,1430
2016-06-12T13:38:25.500Z,1335
2016-06-12T13:39:24.863Z,1270
2016-06-12T13:40:24.849Z,1220
2016-06-12T13:41:24.852Z,1175
2016-06-12T13:42:24.839Z,1140
2016-06-12T13:43:24.827Z,1100
2016-06-12T13:44:24.799Z,1070
2016-06-12T13:45:24.802Z,1030
2016-06-12T13:46:24.774Z,1000
2016-06-12T13:47:24.762Z,970
2016-06-12T13:48:24.748Z,950
2016-06-12T13:49:24.752Z,930
2016-06-12T13:50:24.567Z,920
2016-06-12T13:51:24.712Z,920
2016-06-12T13:52:24.698Z,915
2016-06-12T13:53:25.264Z,910